createdAt,value
2023-05-13T00:00:00.092Z,53.18
2023-05-13T00:02:30.690Z,53.25
2023-05-13T00:04:58.653Z,53.23
2023-05-13T00:07:26.402Z,53.34
2023-05-13T00:09:54.336Z,53.35
2023-05-13T00:12:22.708Z,53.35
2023-05-13T00:14:50.637Z,53.42
2023-05-13T00:17:18.500Z,53.43
2023-05-13T00:19:46.398Z,53.52
2023-05-13T00:22:14.692Z,53.51
2023-05-13T00:24:42.623Z,53.55
2023-05-13T00:27:11.517Z,53.60
2023-05-13T00:29:39.768Z,53.66
2023-05-13T00:32:07.878Z,53.64
2023-05-13T00:34:36.305Z,53.75
2023-05-13T00:37:05.019Z,53.68
2023-05-13T00:39:32.877Z,53.72
2023-05-13T00:42:00.882Z,53.76
2023-05-13T00:44:28.789Z,53.79
2023-05-13T00:46:57.344Z,53.71
2023-05-13T00:49:25.599Z,53.73
2023-05-13T00:51:55.241Z,53.91
2023-05-13T00:54:23.227Z,53.83
2023-05-13T00:56:54.536Z,53.91
2023-05-13T00:59:24.060Z,53.88
2023-05-13T01:02:06.618Z,53.93
2023-05-13T01:04:37.750Z,53.94
2023-05-13T01:07:09.806Z,53.89
2023-05-13T01:09:43.696Z,54.02
2023-05-13T01:12:15.453Z,54.11
2023-05-13T01:14:52.305Z,53.99
2023-05-13T01:17:24.647Z,54.03
2023-05-13T01:19:54.604Z,54.00
2023-05-13T01:22:22.720Z,54.09
2023-05-13T01:24:50.719Z,54.03
2023-05-13T01:27:19.388Z,54.16
2023-05-13T01:29:47.845Z,54.12
2023-05-13T01:32:18.188Z,54.15
2023-05-13T01:34:46.967Z,54.10
2023-05-13T01:37:16.147Z,54.18
2023-05-13T01:39:44.783Z,54.17
2023-05-13T01:42:14.552Z,54.27
2023-05-13T01:44:43.702Z,54.28
2023-05-13T01:47:12.174Z,54.34
2023-05-13T01:49:40.156Z,54.49
2023-05-13T01:52:08.134Z,54.46
2023-05-13T01:54:36.041Z,54.43
2023-05-13T01:57:07.246Z,54.39
2023-05-13T01:59:35.129Z,54.46
2023-05-13T02:02:04.219Z,54.50
2023-05-13T02:04:32.314Z,54.45
2023-05-13T02:07:00.198Z,54.47
2023-05-13T02:09:30.403Z,54.39
2023-05-13T02:11:58.890Z,54.58
2023-05-13T02:14:26.753Z,54.53
2023-05-13T02:16:56.015Z,54.58
2023-05-13T02:19:24.955Z,54.57
2023-05-13T02:21:52.803Z,54.66
2023-05-13T02:24:21.621Z,54.64
2023-05-13T02:26:49.395Z,54.67
2023-05-13T02:29:17.294Z,54.69
2023-05-13T02:31:45.064Z,54.77
2023-05-13T02:34:13.005Z,54.80
2023-05-13T02:36:41.473Z,54.85
2023-05-13T02:39:09.900Z,54.83
2023-05-13T02:41:38.187Z,54.83
2023-05-13T02:44:06.334Z,54.83
2023-05-13T02:46:34.545Z,54.92
2023-05-13T02:49:02.633Z,54.95
2023-05-13T02:51:32.194Z,54.96
2023-05-13T02:54:00.548Z,54.99
2023-05-13T02:56:30.211Z,54.93
2023-05-13T02:58:59.279Z,55.06
2023-05-13T03:01:27.393Z,55.00
2023-05-13T03:03:55.601Z,55.05
2023-05-13T03:06:23.526Z,55.05
2023-05-13T03:08:51.429Z,55.10
2023-05-13T03:11:19.244Z,55.15
2023-05-13T03:13:46.993Z,55.07
2023-05-13T03:16:15.726Z,55.16
2023-05-13T03:18:43.792Z,55.16
2023-05-13T03:21:11.786Z,55.18
2023-05-13T03:23:40.165Z,55.18
2023-05-13T03:26:08.311Z,55.24
2023-05-13T03:28:36.224Z,55.28
2023-05-13T03:31:04.652Z,55.29
2023-05-13T03:33:34.726Z,55.42
2023-05-13T03:36:02.855Z,55.38
2023-05-13T03:38:32.625Z,55.39
2023-05-13T03:41:00.740Z,55.48
2023-05-13T03:43:29.034Z,55.48
2023-05-13T03:46:00.218Z,55.55
2023-05-13T03:48:27.997Z,55.50
2023-05-13T03:50:56.887Z,55.70
2023-05-13T03:53:25.000Z,55.65
2023-05-13T03:55:54.234Z,55.64
2023-05-13T03:58:22.935Z,55.61
2023-05-13T04:00:50.999Z,55.61
2023-05-13T04:03:19.462Z,55.68
2023-05-13T04:05:48.137Z,55.60
2023-05-13T04:08:16.099Z,55.53
2023-05-13T04:10:44.678Z,55.64
2023-05-13T04:13:12.528Z,55.63
2023-05-13T04:15:40.425Z,55.63
2023-05-13T04:18:08.554Z,55.64
2023-05-13T04:20:40.284Z,55.66
2023-05-13T04:23:08.350Z,55.56
2023-05-13T04:25:37.519Z,55.69
2023-05-13T04:28:05.766Z,55.70
2023-05-13T04:30:37.579Z,55.64
2023-05-13T04:33:06.864Z,55.68
2023-05-13T04:35:35.687Z,55.71
2023-05-13T04:38:05.173Z,55.76
2023-05-13T04:40:33.266Z,55.79
2023-05-13T04:43:06.621Z,55.79
2023-05-13T04:45:41.590Z,55.93
2023-05-13T04:48:11.984Z,55.91
2023-05-13T04:50:44.598Z,55.92
2023-05-13T04:53:13.210Z,56.04
2023-05-13T04:55:41.170Z,55.98
2023-05-13T04:58:09.035Z,56.04
2023-05-13T05:00:37.521Z,56.10
2023-05-13T05:03:05.642Z,56.13
2023-05-13T05:05:33.878Z,56.09
2023-05-13T05:08:02.091Z,56.07
2023-05-13T05:10:30.273Z,56.11
2023-05-13T05:13:00.538Z,56.11
2023-05-13T05:15:29.976Z,56.13
2023-05-13T05:18:00.152Z,56.12
2023-05-13T05:20:28.814Z,56.09
2023-05-13T05:23:00.223Z,56.13
2023-05-13T05:25:29.968Z,56.16
2023-05-13T05:27:58.129Z,56.19
2023-05-13T05:30:26.415Z,56.14
2023-05-13T05:33:02.040Z,56.24
2023-05-13T05:35:30.144Z,56.18
2023-05-13T05:37:58.640Z,56.32
2023-05-13T05:40:26.602Z,56.25
2023-05-13T05:42:54.778Z,56.28
2023-05-13T05:45:23.011Z,56.35
2023-05-13T05:47:51.241Z,56.35
2023-05-13T05:50:19.696Z,56.43
2023-05-13T05:52:48.098Z,56.38
2023-05-13T05:55:16.700Z,56.35
2023-05-13T05:57:44.572Z,56.37
2023-05-13T06:00:13.055Z,56.43
2023-05-13T06:02:43.610Z,56.38
2023-05-13T06:05:13.101Z,56.39
2023-05-13T06:07:41.500Z,56.49
2023-05-13T06:10:09.706Z,56.46
2023-05-13T06:12:37.596Z,56.46
2023-05-13T06:15:10.655Z,56.46
2023-05-13T06:17:38.908Z,56.50
2023-05-13T06:20:07.146Z,56.51
2023-05-13T06:22:34.989Z,56.60
2023-05-13T06:25:02.870Z,56.67
2023-05-13T06:27:31.117Z,56.62
2023-05-13T06:30:00.789Z,56.65
2023-05-13T06:32:28.592Z,56.67
2023-05-13T06:34:56.634Z,56.72
2023-05-13T06:37:24.857Z,56.65
2023-05-13T06:39:52.729Z,56.68
2023-05-13T06:42:20.961Z,56.73
2023-05-13T06:44:56.337Z,56.55
2023-05-13T06:47:28.641Z,56.71
2023-05-13T06:49:56.464Z,56.77
2023-05-13T06:52:24.246Z,56.76
2023-05-13T06:54:52.094Z,56.79
2023-05-13T06:57:20.761Z,56.85
2023-05-13T06:59:49.854Z,56.89
2023-05-13T07:02:17.751Z,56.95
2023-05-13T07:04:45.764Z,56.91
2023-05-13T07:07:13.901Z,57.02
2023-05-13T07:09:41.819Z,57.08
2023-05-13T07:12:11.304Z,57.23
2023-05-13T07:14:39.295Z,57.21
2023-05-13T07:17:07.325Z,57.23
2023-05-13T07:19:35.226Z,57.31
2023-05-13T07:22:03.112Z,57.28
2023-05-13T07:24:30.987Z,57.35
2023-05-13T07:26:58.857Z,57.41
2023-05-13T07:29:27.673Z,57.42
2023-05-13T07:31:55.887Z,57.50
2023-05-13T07:34:23.987Z,57.52
2023-05-13T07:36:51.921Z,57.62
2023-05-13T07:39:19.779Z,57.60
2023-05-13T07:41:47.554Z,57.66
2023-05-13T07:44:15.821Z,57.62
2023-05-13T07:46:43.716Z,57.65
2023-05-13T07:49:11.562Z,57.60
2023-05-13T07:51:39.421Z,57.67
2023-05-13T07:54:07.348Z,57.79
2023-05-13T07:56:35.477Z,57.79
2023-05-13T07:59:03.604Z,57.83
2023-05-13T08:01:31.663Z,57.89
2023-05-13T08:03:59.725Z,57.89
2023-05-13T08:06:27.984Z,57.93
2023-05-13T08:08:55.797Z,57.96
2023-05-13T08:11:23.700Z,58.04
2023-05-13T08:13:51.906Z,58.02
2023-05-13T08:16:20.017Z,58.09
2023-05-13T08:18:47.986Z,58.10
2023-05-13T08:21:15.874Z,58.06
2023-05-13T08:23:45.964Z,58.06
2023-05-13T08:26:14.406Z,58.27
2023-05-13T08:28:42.755Z,58.18
2023-05-13T08:31:13.922Z,58.17
2023-05-13T08:33:42.832Z,58.17
2023-05-13T08:36:10.896Z,58.20
2023-05-13T08:38:38.883Z,58.18
2023-05-13T08:41:06.795Z,58.15
2023-05-13T08:43:35.233Z,58.17
2023-05-13T08:46:04.245Z,58.22
2023-05-13T08:48:33.457Z,58.09
2023-05-13T08:51:02.544Z,58.07
2023-05-13T08:53:31.720Z,58.03
2023-05-13T08:56:00.475Z,57.97
2023-05-13T08:58:28.410Z,57.95
2023-05-13T09:00:56.910Z,57.85
2023-05-13T09:03:27.876Z,57.84
2023-05-13T09:05:55.745Z,57.76
2023-05-13T09:08:23.625Z,57.74
2023-05-13T09:10:51.678Z,57.68
2023-05-13T09:13:19.537Z,57.61
2023-05-13T09:15:48.159Z,57.63
2023-05-13T09:18:18.688Z,57.60
2023-05-13T09:20:48.305Z,57.52
2023-05-13T09:23:17.475Z,57.64
2023-05-13T09:25:45.431Z,57.45
2023-05-13T09:28:15.200Z,57.36
2023-05-13T09:30:46.152Z,57.38
2023-05-13T09:33:15.791Z,57.35
2023-05-13T09:35:44.859Z,57.44
2023-05-13T09:38:16.610Z,57.45
2023-05-13T09:40:54.667Z,57.36
2023-05-13T09:43:23.593Z,57.39
2023-05-13T09:45:55.761Z,57.35
2023-05-13T09:48:25.878Z,57.29
2023-05-13T09:50:55.409Z,57.28
2023-05-13T09:53:23.991Z,57.33
2023-05-13T09:55:53.048Z,57.24
2023-05-13T09:58:22.075Z,57.22
2023-05-13T10:00:51.312Z,57.19
2023-05-13T10:03:19.325Z,57.18
2023-05-13T10:05:48.714Z,57.26
2023-05-13T10:08:17.790Z,57.19
2023-05-13T10:10:46.702Z,57.11
2023-05-13T10:13:15.858Z,57.10
2023-05-13T10:15:51.182Z,57.19
2023-05-13T10:18:20.060Z,57.07
2023-05-13T10:20:53.211Z,57.13
2023-05-13T10:23:22.810Z,57.08
2023-05-13T10:25:52.112Z,57.02
2023-05-13T10:28:20.508Z,56.99
2023-05-13T10:30:51.925Z,57.00
2023-05-13T10:33:20.343Z,57.01
2023-05-13T10:36:03.868Z,56.96
2023-05-13T10:38:38.172Z,57.05
2023-05-13T10:41:22.804Z,56.93
2023-05-13T10:43:56.845Z,56.92
2023-05-13T10:46:25.064Z,57.00
2023-05-13T10:48:58.287Z,56.97
2023-05-13T10:51:26.904Z,57.05
2023-05-13T10:53:55.987Z,56.99
2023-05-13T10:56:25.371Z,56.99
2023-05-13T10:59:03.725Z,57.13
2023-05-13T11:01:35.865Z,57.04
2023-05-13T11:04:05.253Z,57.03
2023-05-13T11:06:37.574Z,56.90
2023-05-13T11:09:06.511Z,56.88
2023-05-13T11:11:35.729Z,56.85
2023-05-13T11:14:19.411Z,56.83
2023-05-13T11:16:49.018Z,56.81
2023-05-13T11:19:25.962Z,56.75
2023-05-13T11:21:56.317Z,56.73
2023-05-13T11:24:24.712Z,56.66
2023-05-13T11:26:56.683Z,56.74
2023-05-13T11:29:27.828Z,56.73
2023-05-13T11:32:00.201Z,56.74
2023-05-13T11:34:29.349Z,56.72
2023-05-13T11:36:57.483Z,56.65
2023-05-13T11:39:28.215Z,56.62
2023-05-13T11:42:01.891Z,56.56
2023-05-13T11:44:30.176Z,56.53
2023-05-13T11:46:59.420Z,56.50
2023-05-13T11:49:41.083Z,56.51
2023-05-13T11:52:12.865Z,56.43
2023-05-13T11:54:43.107Z,56.47
2023-05-13T11:57:32.835Z,56.38
2023-05-13T12:00:05.529Z,56.33
2023-05-13T12:02:37.979Z,56.40
2023-05-13T12:05:07.542Z,56.31
2023-05-13T12:07:36.437Z,56.27
2023-05-13T12:10:05.514Z,56.20
2023-05-13T12:12:34.924Z,56.20
2023-05-13T12:15:03.933Z,56.19
2023-05-13T12:17:32.025Z,56.25
2023-05-13T12:20:11.790Z,56.20
2023-05-13T12:22:43.089Z,56.21
2023-05-13T12:25:29.662Z,56.17
2023-05-13T12:27:57.628Z,56.07
2023-05-13T12:30:25.920Z,56.09
2023-05-13T12:32:58.561Z,56.09
2023-05-13T12:35:26.592Z,55.95
2023-05-13T12:38:04.779Z,56.03
2023-05-13T12:40:32.648Z,56.05
2023-05-13T12:43:01.418Z,55.97
2023-05-13T12:45:30.597Z,55.97
2023-05-13T12:47:59.053Z,55.92
2023-05-13T12:50:27.133Z,55.94
2023-05-13T12:52:55.020Z,55.89
2023-05-13T12:55:23.097Z,55.90
2023-05-13T12:57:59.649Z,55.79
2023-05-13T13:00:28.097Z,55.77
2023-05-13T13:02:56.456Z,55.75
2023-05-13T13:05:25.126Z,55.73
2023-05-13T13:07:53.300Z,55.65
2023-05-13T13:10:21.163Z,55.59
2023-05-13T13:12:49.717Z,55.58
2023-05-13T13:15:17.684Z,55.54
2023-05-13T13:17:45.596Z,55.58
2023-05-13T13:20:13.544Z,55.52
2023-05-13T13:22:41.623Z,55.50
2023-05-13T13:25:09.704Z,55.57
2023-05-13T13:27:37.696Z,55.54
2023-05-13T13:30:05.896Z,55.50
2023-05-13T13:32:35.553Z,55.48
2023-05-13T13:35:05.714Z,55.49
2023-05-13T13:37:34.304Z,55.42
2023-05-13T13:40:03.652Z,55.40
2023-05-13T13:42:43.350Z,55.14
2023-05-13T13:45:13.470Z,55.15
2023-05-13T13:47:41.866Z,55.03
2023-05-13T13:50:10.111Z,54.95
2023-05-13T13:52:38.037Z,54.87
2023-05-13T13:55:06.394Z,54.78
2023-05-13T13:57:34.380Z,54.77
2023-05-13T14:00:02.283Z,54.68
2023-05-13T14:02:33.068Z,54.61
2023-05-13T14:05:01.251Z,54.60
2023-05-13T14:07:29.025Z,54.53
2023-05-13T14:09:58.458Z,54.44
2023-05-13T14:12:27.540Z,54.52
2023-05-13T14:14:55.457Z,54.42
2023-05-13T14:17:23.493Z,54.36
2023-05-13T14:19:51.937Z,54.33
2023-05-13T14:22:19.802Z,54.26
2023-05-13T14:24:48.014Z,54.26
2023-05-13T14:27:16.104Z,54.13
2023-05-13T14:29:45.603Z,54.12
2023-05-13T14:32:13.870Z,54.09
2023-05-13T14:34:42.500Z,54.07
2023-05-13T14:37:10.442Z,53.97
2023-05-13T14:39:38.210Z,54.06
2023-05-13T14:42:06.598Z,53.87
2023-05-13T14:44:34.480Z,53.95
2023-05-13T14:47:02.679Z,53.92
2023-05-13T14:49:30.645Z,53.88
2023-05-13T14:51:58.452Z,53.85
2023-05-13T14:54:26.177Z,53.85
2023-05-13T14:56:54.037Z,53.77
2023-05-13T14:59:21.911Z,53.81
2023-05-13T15:01:49.723Z,53.74
2023-05-13T15:04:17.533Z,53.59
2023-05-13T15:06:45.431Z,53.48
2023-05-13T15:09:13.199Z,53.48
2023-05-13T15:11:42.248Z,53.28
2023-05-13T15:14:10.168Z,53.46
2023-05-13T15:16:38.041Z,53.38
2023-05-13T15:19:07.291Z,53.48
2023-05-13T15:21:35.322Z,53.53
2023-05-13T15:24:03.193Z,53.62
2023-05-13T15:26:31.093Z,53.67
2023-05-13T15:28:58.896Z,53.82
2023-05-13T15:31:26.860Z,53.81
2023-05-13T15:33:54.691Z,53.94
2023-05-13T15:36:22.571Z,54.10
2023-05-13T15:38:50.349Z,54.00
2023-05-13T15:41:18.154Z,54.06
2023-05-13T15:43:45.945Z,54.08
2023-05-13T15:46:14.099Z,54.24
2023-05-13T15:48:42.064Z,54.40
2023-05-13T15:51:09.990Z,54.53
2023-05-13T15:53:37.853Z,54.69
2023-05-13T15:56:05.879Z,54.74
2023-05-13T15:58:33.805Z,54.90
2023-05-13T16:01:01.581Z,54.99
2023-05-13T16:03:29.337Z,55.06
2023-05-13T16:05:57.346Z,55.25
2023-05-13T16:08:25.278Z,55.37
2023-05-13T16:10:53.209Z,55.50
2023-05-13T16:13:21.632Z,55.68
2023-05-13T16:15:49.827Z,55.76
2023-05-13T16:18:17.627Z,55.73
2023-05-13T16:20:45.678Z,55.80
2023-05-13T16:23:13.495Z,55.87
2023-05-13T16:25:42.756Z,55.89
2023-05-13T16:28:10.830Z,55.91
2023-05-13T16:30:39.473Z,55.97
2023-05-13T16:33:09.551Z,56.05
2023-05-13T16:35:37.627Z,56.14
2023-05-13T16:38:05.892Z,56.26
2023-05-13T16:40:33.879Z,56.38
2023-05-13T16:43:03.930Z,56.47
2023-05-13T16:45:32.220Z,56.58
2023-05-13T16:48:00.194Z,56.59
2023-05-13T16:50:29.247Z,56.69
2023-05-13T16:52:57.227Z,56.75
2023-05-13T16:55:26.238Z,56.80
2023-05-13T16:57:54.202Z,56.82
2023-05-13T17:00:22.420Z,56.90
2023-05-13T17:02:50.768Z,57.00
2023-05-13T17:05:18.719Z,57.01
2023-05-13T17:07:46.701Z,57.07
2023-05-13T17:10:14.603Z,57.20
2023-05-13T17:12:42.752Z,57.18
2023-05-13T17:15:11.205Z,57.25
2023-05-13T17:17:38.983Z,57.32
2023-05-13T17:20:07.291Z,57.39
2023-05-13T17:22:35.176Z,57.36
2023-05-13T17:25:03.023Z,57.42
2023-05-13T17:27:31.011Z,57.48
2023-05-13T17:29:58.851Z,57.55
2023-05-13T17:32:26.727Z,57.57
2023-05-13T17:34:54.536Z,57.65
2023-05-13T17:37:22.405Z,57.66
2023-05-13T17:39:50.356Z,57.75
2023-05-13T17:42:18.183Z,57.80
2023-05-13T17:44:46.123Z,57.88
2023-05-13T17:47:14.830Z,57.88
2023-05-13T17:49:42.782Z,57.93
2023-05-13T17:52:10.632Z,58.06
2023-05-13T17:54:38.844Z,58.08
2023-05-13T17:57:07.017Z,58.07
2023-05-13T17:59:34.779Z,58.10
2023-05-13T18:02:02.728Z,58.12
2023-05-13T18:04:30.630Z,58.15
2023-05-13T18:06:58.662Z,58.18
2023-05-13T18:09:26.684Z,58.27
2023-05-13T18:11:54.511Z,58.32
2023-05-13T18:14:22.423Z,58.34
2023-05-13T18:16:50.683Z,58.33
2023-05-13T18:19:18.821Z,58.44
2023-05-13T18:21:46.920Z,58.39
2023-05-13T18:24:14.672Z,58.48
2023-05-13T18:26:42.472Z,58.44
2023-05-13T18:29:10.562Z,58.58
2023-05-13T18:31:38.465Z,58.66
2023-05-13T18:34:06.354Z,58.66
2023-05-13T18:36:34.114Z,58.70
2023-05-13T18:39:02.172Z,58.78
2023-05-13T18:41:30.045Z,58.73
2023-05-13T18:43:57.889Z,58.82
2023-05-13T18:46:25.982Z,58.95
2023-05-13T18:48:53.854Z,58.93
2023-05-13T18:51:21.793Z,58.93
2023-05-13T18:53:49.715Z,58.95
2023-05-13T18:56:17.657Z,59.00
2023-05-13T18:58:46.650Z,58.95
2023-05-13T19:01:15.813Z,58.93
2023-05-13T19:03:43.893Z,59.04
2023-05-13T19:06:12.078Z,59.10
2023-05-13T19:08:40.009Z,59.09
2023-05-13T19:11:08.245Z,59.02
2023-05-13T19:13:46.594Z,59.16
2023-05-13T19:16:15.761Z,59.16
2023-05-13T19:18:43.906Z,59.20
2023-05-13T19:21:11.873Z,59.12
2023-05-13T19:23:39.830Z,59.16
2023-05-13T19:26:08.517Z,59.20
2023-05-13T19:28:37.505Z,59.17
2023-05-13T19:31:06.312Z,59.13
2023-05-13T19:33:37.045Z,59.23
2023-05-13T19:36:06.757Z,59.26
2023-05-13T19:38:35.313Z,59.22
2023-05-13T19:41:03.420Z,59.11
2023-05-13T19:43:31.271Z,59.18
2023-05-13T19:45:59.266Z,59.09
2023-05-13T19:48:29.133Z,59.18
2023-05-13T19:50:58.600Z,59.01
2023-05-13T19:53:26.749Z,59.14
2023-05-13T19:55:55.578Z,59.03
2023-05-13T19:58:23.545Z,59.09
2023-05-13T20:00:51.511Z,59.11
2023-05-13T20:03:19.403Z,59.11
2023-05-13T20:05:48.743Z,59.12
2023-05-13T20:08:16.632Z,59.08
2023-05-13T20:10:44.672Z,59.07
2023-05-13T20:13:12.608Z,59.06
2023-05-13T20:15:40.643Z,59.13
2023-05-13T20:18:08.533Z,59.16
2023-05-13T20:20:36.536Z,59.10
2023-05-13T20:23:04.524Z,59.16
2023-05-13T20:25:32.384Z,59.23
2023-05-13T20:28:00.264Z,59.12
2023-05-13T20:30:28.138Z,59.16
2023-05-13T20:32:55.961Z,59.12
2023-05-13T20:35:23.963Z,59.17
2023-05-13T20:37:51.797Z,59.26
2023-05-13T20:40:19.724Z,59.22
2023-05-13T20:42:47.989Z,59.23
2023-05-13T20:45:16.078Z,59.19
2023-05-13T20:47:43.865Z,59.20
2023-05-13T20:50:12.010Z,59.21
2023-05-13T20:52:39.818Z,59.28
2023-05-13T20:55:08.156Z,59.25
2023-05-13T20:57:35.936Z,59.24
2023-05-13T21:00:04.323Z,59.29
2023-05-13T21:02:32.148Z,59.35
2023-05-13T21:05:00.256Z,59.41
2023-05-13T21:07:28.073Z,59.40
2023-05-13T21:09:55.969Z,59.49
2023-05-13T21:12:24.287Z,59.42
2023-05-13T21:14:52.175Z,59.48
2023-05-13T21:17:21.575Z,59.49
2023-05-13T21:19:49.978Z,59.55
2023-05-13T21:22:17.901Z,59.62
2023-05-13T21:24:46.560Z,59.68
2023-05-13T21:27:14.510Z,59.70
2023-05-13T21:29:42.304Z,59.74
2023-05-13T21:32:10.251Z,59.72
2023-05-13T21:34:38.143Z,59.83
2023-05-13T21:37:06.277Z,59.80
2023-05-13T21:39:34.055Z,59.86
2023-05-13T21:42:01.838Z,59.89
2023-05-13T21:44:29.708Z,59.93
2023-05-13T21:46:57.821Z,59.90
2023-05-13T21:49:25.747Z,59.92
2023-05-13T21:51:53.632Z,59.79
2023-05-13T21:54:21.537Z,59.88
2023-05-13T21:56:49.674Z,59.80
2023-05-13T21:59:17.873Z,59.83
2023-05-13T22:01:46.146Z,59.68
2023-05-13T22:04:14.089Z,59.72
2023-05-13T22:06:42.028Z,59.68
2023-05-13T22:09:09.843Z,59.68
2023-05-13T22:11:37.839Z,59.63
2023-05-13T22:14:05.693Z,59.68
2023-05-13T22:16:33.584Z,59.48
2023-05-13T22:19:01.502Z,59.57
2023-05-13T22:21:29.430Z,59.46
2023-05-13T22:23:57.268Z,59.49
2023-05-13T22:26:25.098Z,59.43
2023-05-13T22:28:52.977Z,59.40
2023-05-13T22:31:21.152Z,59.33
2023-05-13T22:33:48.948Z,59.39
2023-05-13T22:36:16.735Z,59.25
2023-05-13T22:38:44.520Z,59.23
2023-05-13T22:41:12.865Z,59.15
2023-05-13T22:43:40.789Z,59.18
2023-05-13T22:46:08.798Z,59.09
2023-05-13T22:48:36.737Z,59.02
2023-05-13T22:51:04.716Z,59.03
2023-05-13T22:53:32.714Z,59.09
2023-05-13T22:56:00.993Z,59.07
2023-05-13T22:58:28.811Z,59.11
2023-05-13T23:00:56.608Z,59.03
2023-05-13T23:03:24.590Z,59.06
2023-05-13T23:05:52.562Z,59.03
2023-05-13T23:08:20.408Z,58.96
2023-05-13T23:10:48.224Z,59.00
2023-05-13T23:13:16.016Z,58.87
2023-05-13T23:15:44.096Z,58.93
2023-05-13T23:18:12.183Z,59.00
2023-05-13T23:20:40.188Z,58.91
2023-05-13T23:23:08.215Z,58.85
2023-05-13T23:25:36.142Z,58.89
2023-05-13T23:28:03.948Z,58.80
2023-05-13T23:30:31.831Z,58.60
2023-05-13T23:32:59.794Z,58.49
2023-05-13T23:35:27.961Z,58.51
2023-05-13T23:37:55.901Z,58.56
2023-05-13T23:40:24.160Z,58.51
2023-05-13T23:42:52.459Z,58.59
2023-05-13T23:45:20.895Z,58.61
2023-05-13T23:47:49.953Z,58.58
2023-05-13T23:50:18.141Z,58.59
2023-05-13T23:52:51.141Z,58.64
2023-05-13T23:55:21.822Z,58.68
2023-05-13T23:57:49.732Z,58.67
